createdAt,value
2018-05-06T00:02:03.067Z,102100.66
2018-05-06T00:04:28.849Z,102094.53
2018-05-06T00:06:54.658Z,102091.31
2018-05-06T00:09:20.455Z,102093.30
2018-05-06T00:11:46.254Z,102097.77
2018-05-06T00:14:12.060Z,102098.79
2018-05-06T00:16:37.873Z,102101.27
2018-05-06T00:19:03.676Z,102108.14
2018-05-06T00:21:29.486Z,102102.99
2018-05-06T00:23:55.268Z,102109.20
2018-05-06T00:26:21.054Z,102103.69
2018-05-06T00:28:46.846Z,102100.22
2018-05-06T00:31:12.646Z,102103.42
2018-05-06T00:33:38.541Z,102102.44
2018-05-06T00:36:04.273Z,102100.20
2018-05-06T00:38:30.069Z,102096.44
2018-05-06T00:40:55.881Z,102097.16
2018-05-06T00:43:21.702Z,102094.14
2018-05-06T00:45:47.507Z,102095.78
2018-05-06T00:48:13.289Z,102096.40
2018-05-06T00:50:39.091Z,102090.05
2018-05-06T00:53:04.890Z,102096.22
2018-05-06T00:55:30.669Z,102100.30
2018-05-06T00:57:56.452Z,102098.14
2018-05-06T01:00:22.238Z,102098.52
2018-05-06T01:02:48.021Z,102098.16
2018-05-06T01:05:13.841Z,102098.43
2018-05-06T01:07:39.662Z,102096.78
2018-05-06T01:10:05.476Z,102096.25
2018-05-06T01:12:31.309Z,102094.67
2018-05-06T01:14:57.093Z,102097.82
2018-05-06T01:17:22.881Z,102088.70
2018-05-06T01:19:48.670Z,102087.41
2018-05-06T01:22:14.450Z,102092.81
2018-05-06T01:24:40.233Z,102091.52
2018-05-06T01:27:06.031Z,102088.52
2018-05-06T01:29:31.824Z,102072.38
2018-05-06T01:31:57.640Z,102099.52
2018-05-06T01:34:23.747Z,102098.94
2018-05-06T01:36:49.526Z,102097.83
2018-05-06T01:39:15.318Z,102096.52
2018-05-06T01:41:41.099Z,102095.02
2018-05-06T01:44:06.882Z,102085.78
2018-05-06T01:46:32.684Z,102084.50
2018-05-06T01:48:58.471Z,102084.25
2018-05-06T01:51:24.265Z,102080.73
2018-05-06T01:53:50.109Z,102085.85
2018-05-06T01:56:15.920Z,102087.41
2018-05-06T01:58:41.719Z,102090.38
2018-05-06T02:01:07.533Z,102086.13
2018-05-06T02:03:33.309Z,102083.98
2018-05-06T02:05:59.095Z,102077.59
2018-05-06T02:08:24.885Z,102074.62
2018-05-06T02:10:50.676Z,102071.61
2018-05-06T02:13:16.474Z,102072.86
2018-05-06T02:15:42.294Z,102081.84
2018-05-06T02:18:08.097Z,102082.03
2018-05-06T02:20:33.889Z,102083.47
2018-05-06T02:22:59.692Z,102088.77
2018-05-06T02:25:25.465Z,102091.11
2018-05-06T02:27:51.263Z,102095.48
2018-05-06T02:30:17.086Z,102092.64
2018-05-06T02:32:42.893Z,102088.66
2018-05-06T02:35:08.697Z,102089.61
2018-05-06T02:37:34.472Z,102087.73
2018-05-06T02:40:00.244Z,102083.44
2018-05-06T02:42:26.056Z,102084.03
2018-05-06T02:44:51.843Z,102087.03
2018-05-06T02:47:17.615Z,102088.33
2018-05-06T02:49:43.428Z,102085.23
2018-05-06T02:52:09.212Z,102083.88
2018-05-06T02:54:35.009Z,102088.07
2018-05-06T02:57:00.803Z,102080.00
2018-05-06T02:59:26.612Z,102080.12
2018-05-06T03:01:52.415Z,102080.94
2018-05-06T03:04:18.233Z,102084.47
2018-05-06T03:06:44.021Z,102078.59
2018-05-06T03:09:09.805Z,102081.12
2018-05-06T03:11:35.605Z,102078.77
2018-05-06T03:14:01.392Z,102077.77
2018-05-06T03:16:27.207Z,102081.41
2018-05-06T03:18:53.006Z,102082.28
2018-05-06T03:21:18.810Z,102088.07
2018-05-06T03:23:44.584Z,102094.46
2018-05-06T03:26:10.382Z,102090.86
2018-05-06T03:28:36.167Z,102089.17
2018-05-06T03:31:01.970Z,102088.70
2018-05-06T03:33:27.757Z,102093.20
2018-05-06T03:35:53.553Z,102090.86
2018-05-06T03:38:19.355Z,102092.20
2018-05-06T03:40:45.158Z,102095.33
2018-05-06T03:43:10.976Z,102096.73
2018-05-06T03:45:36.752Z,102102.84
2018-05-06T03:48:02.582Z,102101.58
2018-05-06T03:50:29.173Z,102109.03
2018-05-06T03:52:54.952Z,102104.16
2018-05-06T03:55:20.755Z,102103.35
2018-05-06T03:57:59.018Z,102101.41
2018-05-06T04:00:37.289Z,102097.05
2018-05-06T04:03:03.273Z,102099.70
2018-05-06T04:05:29.400Z,102108.39
2018-05-06T04:07:55.198Z,102104.50
2018-05-06T04:10:20.989Z,102109.42
2018-05-06T04:12:46.794Z,102101.26
2018-05-06T04:15:12.583Z,102105.15
2018-05-06T04:17:38.365Z,102105.25
2018-05-06T04:20:04.179Z,102109.66
2018-05-06T04:22:29.977Z,102109.62
2018-05-06T04:24:55.755Z,102111.42
2018-05-06T04:27:21.564Z,102111.37
2018-05-06T04:29:47.362Z,102114.44
2018-05-06T04:32:13.158Z,102116.69
2018-05-06T04:34:38.951Z,102117.29
2018-05-06T04:37:04.766Z,102120.70
2018-05-06T04:39:30.542Z,102129.16
2018-05-06T04:41:56.322Z,102125.86
2018-05-06T04:44:22.119Z,102127.86
2018-05-06T04:46:47.896Z,102128.36
2018-05-06T04:49:13.690Z,102125.91
2018-05-06T04:51:39.494Z,102127.23
2018-05-06T04:54:05.272Z,102127.52
2018-05-06T04:56:31.048Z,102122.09
2018-05-06T04:58:56.821Z,102112.78
2018-05-06T05:01:22.613Z,102118.68
2018-05-06T05:03:48.398Z,102121.30
2018-05-06T05:06:14.178Z,102120.05
2018-05-06T05:08:39.989Z,102119.06
2018-05-06T05:11:05.769Z,102117.72
2018-05-06T05:13:31.563Z,102120.66
2018-05-06T05:15:57.409Z,102128.14
2018-05-06T05:18:23.211Z,102124.56
2018-05-06T05:20:49.086Z,102128.66
2018-05-06T05:23:14.806Z,102134.69
2018-05-06T05:25:40.592Z,102131.02
2018-05-06T05:28:06.371Z,102131.91
2018-05-06T05:30:32.173Z,102137.12
2018-05-06T05:32:57.990Z,102142.02
2018-05-06T05:35:23.781Z,102141.52
2018-05-06T05:37:49.560Z,102145.56
2018-05-06T05:40:15.362Z,102142.91
2018-05-06T05:42:41.150Z,102142.34
2018-05-06T05:45:07.043Z,102148.14
2018-05-06T05:47:32.843Z,102144.23
2018-05-06T05:49:59.317Z,102152.11
2018-05-06T05:52:25.140Z,102157.12
2018-05-06T05:54:50.930Z,102154.11
2018-05-06T05:57:16.710Z,102155.47
2018-05-06T05:59:42.536Z,102154.63
2018-05-06T06:02:08.347Z,102165.05
2018-05-06T06:04:34.141Z,102173.27
2018-05-06T06:06:59.933Z,102180.66
2018-05-06T06:09:25.835Z,102184.83
2018-05-06T06:11:51.577Z,102185.83
2018-05-06T06:14:17.379Z,102190.84
2018-05-06T06:16:43.154Z,102187.80
2018-05-06T06:19:08.983Z,102181.17
2018-05-06T06:21:35.394Z,102186.59
2018-05-06T06:24:01.185Z,102193.77
2018-05-06T06:26:26.979Z,102192.36
2018-05-06T06:28:52.762Z,102194.16
2018-05-06T06:31:18.537Z,102195.20
2018-05-06T06:33:44.356Z,102197.52
2018-05-06T06:36:10.141Z,102194.98
2018-05-06T06:38:35.925Z,102190.31
2018-05-06T06:41:01.721Z,102193.33
2018-05-06T06:43:27.525Z,102192.05
2018-05-06T06:45:53.303Z,102198.05
2018-05-06T06:48:19.201Z,102198.58
2018-05-06T06:50:44.987Z,102191.17
2018-05-06T06:53:10.761Z,102193.75
2018-05-06T06:55:36.598Z,102186.09
2018-05-06T06:58:02.418Z,102187.66
2018-05-06T07:00:28.212Z,102185.89
2018-05-06T07:02:54.016Z,102180.92
2018-05-06T07:05:19.815Z,102177.52
2018-05-06T07:07:45.605Z,102178.95
2018-05-06T07:10:11.429Z,102176.08
2018-05-06T07:12:37.209Z,102175.82
2018-05-06T07:15:03.302Z,102175.98
2018-05-06T07:17:29.097Z,102172.39
2018-05-06T07:19:54.889Z,102167.80
2018-05-06T07:22:20.675Z,102170.48
2018-05-06T07:24:46.470Z,102169.13
2018-05-06T07:27:12.305Z,102167.92
2018-05-06T07:29:38.065Z,102162.26
2018-05-06T07:32:03.856Z,102159.91
2018-05-06T07:34:29.660Z,102157.31
2018-05-06T07:36:55.440Z,102154.88
2018-05-06T07:39:21.224Z,102151.39
2018-05-06T07:41:47.025Z,102148.85
2018-05-06T07:44:12.801Z,102159.03
2018-05-06T07:46:38.590Z,102165.41
2018-05-06T07:49:04.669Z,102171.63
2018-05-06T07:51:30.456Z,102172.45
2018-05-06T07:53:56.273Z,102172.69
2018-05-06T07:56:22.069Z,102169.66
2018-05-06T07:58:48.278Z,102180.62
2018-05-06T08:01:14.036Z,102171.68
2018-05-06T08:03:39.981Z,102176.70
2018-05-06T08:06:05.805Z,102178.06
2018-05-06T08:08:31.610Z,102181.81
2018-05-06T08:10:57.483Z,102184.27
2018-05-06T08:13:23.205Z,102186.49
2018-05-06T08:15:49.010Z,102183.29
2018-05-06T08:18:14.802Z,102177.17
2018-05-06T08:20:40.596Z,102175.90
2018-05-06T08:23:06.387Z,102177.67
2018-05-06T08:25:32.190Z,102179.48
2018-05-06T08:27:57.965Z,102179.30
2018-05-06T08:30:23.956Z,102178.81
2018-05-06T08:32:49.745Z,102180.26
2018-05-06T08:35:15.593Z,102175.67
2018-05-06T08:37:41.645Z,102167.45
2018-05-06T08:40:07.442Z,102175.36
2018-05-06T08:42:33.237Z,102175.95
2018-05-06T08:44:59.027Z,102175.09
2018-05-06T08:47:24.816Z,102172.80
2018-05-06T08:49:50.809Z,102177.21
2018-05-06T08:52:16.635Z,102171.80
2018-05-06T08:54:42.426Z,102158.91
2018-05-06T08:57:08.215Z,102162.33
2018-05-06T08:59:34.031Z,102160.34
2018-05-06T09:01:59.828Z,102161.84
2018-05-06T09:04:25.618Z,102162.88
2018-05-06T09:06:51.441Z,102161.75
2018-05-06T09:09:17.254Z,102158.30
2018-05-06T09:11:43.033Z,102162.55
2018-05-06T09:14:08.830Z,102160.77
2018-05-06T09:16:34.608Z,102157.08
2018-05-06T09:19:00.400Z,102155.16
2018-05-06T09:21:26.240Z,102155.61
2018-05-06T09:23:52.027Z,102156.38
2018-05-06T09:26:17.853Z,102157.25
2018-05-06T09:28:43.655Z,102164.73
2018-05-06T09:31:09.460Z,102161.01
2018-05-06T09:33:35.262Z,102160.13
2018-05-06T09:36:01.037Z,102155.45
2018-05-06T09:38:26.988Z,102162.03
2018-05-06T09:40:52.754Z,102156.66
2018-05-06T09:43:18.644Z,102156.02
2018-05-06T09:45:44.637Z,102157.70
2018-05-06T09:48:10.455Z,102153.73
2018-05-06T09:50:36.238Z,102148.36
2018-05-06T09:53:02.050Z,102148.22
2018-05-06T09:55:27.829Z,102147.28
2018-05-06T09:57:53.592Z,102155.93
2018-05-06T10:00:19.369Z,102148.55
2018-05-06T10:02:45.153Z,102143.44
2018-05-06T10:05:10.944Z,102145.41
2018-05-06T10:07:36.717Z,102148.84
2018-05-06T10:10:02.522Z,102151.27
2018-05-06T10:12:28.371Z,102146.41
2018-05-06T10:14:54.149Z,102152.13
2018-05-06T10:17:19.943Z,102139.96
2018-05-06T10:19:45.744Z,102146.92
2018-05-06T10:22:11.582Z,102152.73
2018-05-06T10:24:44.459Z,102139.30
2018-05-06T10:27:10.246Z,102134.61
2018-05-06T10:29:36.186Z,102134.61
2018-05-06T10:32:01.982Z,102128.77
2018-05-06T10:34:27.788Z,102133.91
2018-05-06T10:36:53.604Z,102130.47
2018-05-06T10:39:19.398Z,102135.41
2018-05-06T10:41:45.185Z,102124.92
2018-05-06T10:44:11.120Z,102122.06
2018-05-06T10:46:36.795Z,102126.10
2018-05-06T10:49:02.692Z,102124.48
2018-05-06T10:51:28.407Z,102114.08
2018-05-06T10:53:54.198Z,102120.73
2018-05-06T10:56:19.978Z,102114.44
2018-05-06T10:58:45.766Z,102111.66
2018-05-06T11:01:11.559Z,102113.01
2018-05-06T11:03:37.352Z,102112.53
2018-05-06T11:06:03.145Z,102105.91
2018-05-06T11:08:28.984Z,102107.78
2018-05-06T11:10:54.769Z,102101.25
2018-05-06T11:13:20.546Z,102103.29
2018-05-06T11:15:46.337Z,102096.84
2018-05-06T11:18:12.115Z,102092.02
2018-05-06T11:20:37.899Z,102094.44
2018-05-06T11:23:03.714Z,102097.78
2018-05-06T11:25:29.509Z,102087.91
2018-05-06T11:27:55.312Z,102090.84
2018-05-06T11:30:21.266Z,102089.59
2018-05-06T11:32:47.048Z,102087.53
2018-05-06T11:35:12.854Z,102084.66
2018-05-06T11:37:38.691Z,102087.55
2018-05-06T11:40:04.478Z,102091.02
2018-05-06T11:42:30.253Z,102081.17
2018-05-06T11:44:56.039Z,102077.98
2018-05-06T11:47:21.838Z,102072.34
2018-05-06T11:49:47.618Z,102074.03
2018-05-06T11:52:13.394Z,102078.34
2018-05-06T11:54:39.349Z,102074.37
2018-05-06T11:57:05.136Z,102071.97
2018-05-06T11:59:30.924Z,102069.34
2018-05-06T12:01:56.719Z,102061.23
2018-05-06T12:04:22.521Z,102062.38
2018-05-06T12:06:48.317Z,102057.09
2018-05-06T12:09:14.102Z,102065.19
2018-05-06T12:11:39.905Z,102058.94
2018-05-06T12:14:05.713Z,102059.67
2018-05-06T12:16:31.510Z,102051.64
2018-05-06T12:18:57.308Z,102052.48
2018-05-06T12:21:23.097Z,102046.19
2018-05-06T12:23:48.909Z,102048.46
2018-05-06T12:26:14.824Z,102039.27
2018-05-06T12:28:40.596Z,102034.48
2018-05-06T12:31:06.389Z,102040.13
2018-05-06T12:33:32.224Z,102030.13
2018-05-06T12:35:57.980Z,102031.41
2018-05-06T12:38:23.750Z,102021.72
2018-05-06T12:40:49.550Z,102025.11
2018-05-06T12:43:15.346Z,102024.20
2018-05-06T12:45:41.143Z,102016.72
2018-05-06T12:48:06.966Z,102009.17
2018-05-06T12:50:32.741Z,102007.41
2018-05-06T12:52:58.558Z,102008.58
2018-05-06T12:55:24.407Z,101999.37
2018-05-06T12:57:50.193Z,101999.48
2018-05-06T13:00:15.980Z,102003.73
2018-05-06T13:02:41.777Z,101998.34
2018-05-06T13:05:07.553Z,101995.14
2018-05-06T13:07:33.602Z,101990.94
2018-05-06T13:09:59.392Z,101990.36
2018-05-06T13:12:25.180Z,101987.31
2018-05-06T13:14:50.994Z,101995.11
2018-05-06T13:17:16.785Z,101995.30
2018-05-06T13:19:42.585Z,101997.14
2018-05-06T13:22:08.368Z,101995.00
2018-05-06T13:24:34.141Z,101994.25
2018-05-06T13:26:59.959Z,101989.55
2018-05-06T13:29:25.787Z,101982.23
2018-05-06T13:31:51.589Z,101976.49
2018-05-06T13:34:17.357Z,101973.72
2018-05-06T13:36:43.144Z,101978.44
2018-05-06T13:39:08.962Z,101979.37
2018-05-06T13:41:34.789Z,101972.57
2018-05-06T13:44:00.648Z,101971.44
2018-05-06T13:46:26.401Z,101971.91
2018-05-06T13:48:52.203Z,101969.77
2018-05-06T13:51:18.030Z,101960.50
2018-05-06T13:53:43.833Z,101959.75
2018-05-06T13:56:09.635Z,101957.81
2018-05-06T13:58:35.518Z,101949.50
2018-05-06T14:01:01.313Z,101953.38
2018-05-06T14:03:27.132Z,101942.25
2018-05-06T14:05:52.938Z,101951.06
2018-05-06T14:08:18.720Z,101944.30
2018-05-06T14:10:44.569Z,101940.66
2018-05-06T14:13:10.366Z,101938.97
2018-05-06T14:15:36.197Z,101942.02
2018-05-06T14:18:02.013Z,101930.48
2018-05-06T14:20:27.852Z,101942.31
2018-05-06T14:22:53.681Z,101935.34
2018-05-06T14:25:19.498Z,101934.33
2018-05-06T14:27:45.293Z,101934.44
2018-05-06T14:30:11.318Z,101931.06
2018-05-06T14:32:37.207Z,101924.06
2018-05-06T14:35:03.018Z,101924.20
2018-05-06T14:37:28.831Z,101923.92
2018-05-06T14:39:54.630Z,101922.91
2018-05-06T14:42:20.409Z,101927.73
2018-05-06T14:44:46.217Z,101929.31
2018-05-06T14:47:24.352Z,101923.45
2018-05-06T14:49:50.129Z,101922.80
2018-05-06T14:52:16.006Z,101916.57
2018-05-06T14:54:41.780Z,101910.98
2018-05-06T14:57:07.551Z,101909.52
2018-05-06T14:59:33.344Z,101914.00
2018-05-06T15:01:59.129Z,101902.62
2018-05-06T15:04:24.916Z,101900.89
2018-05-06T15:06:50.737Z,101901.08
2018-05-06T15:09:16.545Z,101897.14
2018-05-06T15:11:42.338Z,101901.48
2018-05-06T15:14:08.172Z,101895.39
2018-05-06T15:16:33.976Z,101891.74
2018-05-06T15:18:59.764Z,101887.86
2018-05-06T15:21:25.705Z,101884.41
2018-05-06T15:23:51.494Z,101882.11
2018-05-06T15:26:17.289Z,101883.73
2018-05-06T15:28:43.112Z,101881.62
2018-05-06T15:31:09.033Z,101875.71
2018-05-06T15:33:34.847Z,101879.55
2018-05-06T15:36:00.681Z,101883.57
2018-05-06T15:38:26.495Z,101885.55
2018-05-06T15:40:52.293Z,101877.92
2018-05-06T15:43:18.145Z,101876.19
2018-05-06T15:45:43.950Z,101875.80
2018-05-06T15:48:09.795Z,101870.23
2018-05-06T15:50:35.623Z,101873.41
2018-05-06T15:53:01.450Z,101876.64
2018-05-06T15:55:27.256Z,101861.83
2018-05-06T15:57:53.041Z,101860.94
2018-05-06T16:00:18.836Z,101859.04
2018-05-06T16:02:57.890Z,101850.37
2018-05-06T16:05:23.704Z,101851.89
2018-05-06T16:07:49.505Z,101847.64
2018-05-06T16:10:15.300Z,101843.70
2018-05-06T16:12:41.074Z,101848.41
2018-05-06T16:15:06.875Z,101843.11
2018-05-06T16:17:32.733Z,101847.52
2018-05-06T16:19:58.683Z,101842.97
2018-05-06T16:22:24.550Z,101853.08
2018-05-06T16:24:50.399Z,101846.48
2018-05-06T16:27:16.197Z,101834.02
2018-05-06T16:29:42.031Z,101838.61
2018-05-06T16:32:07.821Z,101828.55
2018-05-06T16:34:33.596Z,101824.19
2018-05-06T16:36:59.574Z,101831.86
2018-05-06T16:39:25.405Z,101822.78
2018-05-06T16:41:51.449Z,101828.81
2018-05-06T16:44:17.251Z,101830.09
2018-05-06T16:46:43.054Z,101832.50
2018-05-06T16:49:08.839Z,101810.58
2018-05-06T16:51:34.633Z,101826.30
2018-05-06T16:54:00.457Z,101825.34
2018-05-06T16:56:26.289Z,101826.00
2018-05-06T16:58:52.095Z,101831.93
2018-05-06T17:01:18.120Z,101824.16
2018-05-06T17:03:43.929Z,101833.30
2018-05-06T17:06:10.017Z,101824.39
2018-05-06T17:08:35.787Z,101825.23
2018-05-06T17:11:01.573Z,101823.43
2018-05-06T17:13:27.965Z,101827.81
2018-05-06T17:15:53.857Z,101827.75
2018-05-06T17:18:19.654Z,101823.20
2018-05-06T17:20:45.454Z,101818.64
2018-05-06T17:23:11.562Z,101820.58
2018-05-06T17:25:37.367Z,101818.66
2018-05-06T17:28:03.445Z,101821.42
2018-05-06T17:30:29.252Z,101827.31
2018-05-06T17:32:56.271Z,101818.78
2018-05-06T17:35:22.252Z,101824.00
2018-05-06T17:37:48.103Z,101820.59
2018-05-06T17:40:13.888Z,101818.73
2018-05-06T17:42:39.697Z,101815.02
2018-05-06T17:45:05.501Z,101813.13
2018-05-06T17:47:31.305Z,101806.94
2018-05-06T17:49:57.179Z,101808.62
2018-05-06T17:55:12.056Z,101814.02
2018-05-06T17:57:37.841Z,101822.92
2018-05-06T18:00:03.661Z,101818.52
2018-05-06T18:02:29.441Z,101817.16
2018-05-06T18:04:55.216Z,101815.63
2018-05-06T18:07:21.279Z,101822.09
2018-05-06T18:09:47.065Z,101824.04
2018-05-06T18:12:12.845Z,101828.56
2018-05-06T18:14:38.642Z,101824.47
2018-05-06T18:17:04.446Z,101827.92
2018-05-06T18:19:30.225Z,101827.20
2018-05-06T18:21:56.097Z,101823.53
2018-05-06T18:24:21.888Z,101824.24
2018-05-06T18:26:47.689Z,101825.78
2018-05-06T18:29:13.473Z,101831.05
2018-05-06T18:31:39.265Z,101824.20
2018-05-06T18:34:05.384Z,101823.47
2018-05-06T18:36:31.184Z,101817.27
2018-05-06T18:38:56.964Z,101821.59
2018-05-06T18:41:22.749Z,101817.51
2018-05-06T18:43:48.565Z,101824.47
2018-05-06T18:46:14.345Z,101819.49
2018-05-06T18:48:40.504Z,101817.33
2018-05-06T18:51:06.333Z,101819.00
2018-05-06T18:53:32.241Z,101818.30
2018-05-06T18:55:58.100Z,101819.17
2018-05-06T18:58:23.895Z,101817.83
2018-05-06T19:00:49.860Z,101819.40
2018-05-06T19:03:15.677Z,101820.31
2018-05-06T19:05:41.473Z,101827.38
2018-05-06T19:08:07.435Z,101822.15
2018-05-06T19:10:33.228Z,101830.39
2018-05-06T19:12:59.433Z,101828.75
2018-05-06T19:15:25.221Z,101829.43
2018-05-06T19:17:51.364Z,101830.67
2018-05-06T19:20:17.197Z,101829.30
2018-05-06T19:22:43.143Z,101825.56
2018-05-06T19:25:08.990Z,101830.36
2018-05-06T19:27:34.829Z,101825.01
2018-05-06T19:30:00.838Z,101822.25
2018-05-06T19:32:26.845Z,101826.87
2018-05-06T19:34:52.957Z,101829.36
2018-05-06T19:37:19.036Z,101827.36
2018-05-06T19:39:45.273Z,101822.37
2018-05-06T19:42:11.238Z,101824.53
2018-05-06T19:44:37.021Z,101825.25
2018-05-06T19:47:02.812Z,101827.91
2018-05-06T19:49:28.593Z,101831.42
2018-05-06T19:51:54.520Z,101829.32
2018-05-06T19:54:20.315Z,101832.42
2018-05-06T19:56:46.207Z,101829.62
2018-05-06T19:59:12.078Z,101834.61
2018-05-06T20:01:37.869Z,101829.67
2018-05-06T20:04:03.661Z,101834.56
2018-05-06T20:06:29.471Z,101838.70
2018-05-06T20:08:55.429Z,101835.03
2018-05-06T20:11:21.224Z,101831.03
2018-05-06T20:13:47.029Z,101827.90
2018-05-06T20:16:13.016Z,101829.73
2018-05-06T20:18:38.752Z,101816.78
2018-05-06T20:21:04.790Z,101822.76
2018-05-06T20:23:30.740Z,101824.06
2018-05-06T20:25:56.531Z,101823.48
2018-05-06T20:28:22.315Z,101827.52
2018-05-06T20:30:48.140Z,101827.94
2018-05-06T20:33:13.935Z,101832.08
2018-05-06T20:35:39.722Z,101828.24
2018-05-06T20:38:05.658Z,101820.10
2018-05-06T20:40:31.457Z,101829.79
2018-05-06T20:42:57.345Z,101822.48
2018-05-06T20:45:23.218Z,101825.38
2018-05-06T20:47:48.997Z,101823.10
2018-05-06T20:50:14.797Z,101825.17
2018-05-06T20:52:40.592Z,101827.36
2018-05-06T20:55:06.771Z,101817.38
2018-05-06T20:57:32.579Z,101813.44
2018-05-06T20:59:58.377Z,101818.83
2018-05-06T21:02:24.321Z,101809.31
2018-05-06T21:04:50.095Z,101810.77
2018-05-06T21:07:15.883Z,101814.56
2018-05-06T21:09:41.679Z,101811.78
2018-05-06T21:12:07.472Z,101808.23
2018-05-06T21:14:33.441Z,101813.30
2018-05-06T21:16:59.233Z,101806.20
2018-05-06T21:19:25.139Z,101807.42
2018-05-06T21:21:50.945Z,101811.72
2018-05-06T21:24:16.730Z,101815.15
2018-05-06T21:26:42.634Z,101810.77
2018-05-06T21:29:08.575Z,101821.67
2018-05-06T21:31:34.550Z,101817.14
2018-05-06T21:34:00.345Z,101819.58
2018-05-06T21:36:26.397Z,101820.31
2018-05-06T21:38:52.217Z,101819.69
2018-05-06T21:41:18.174Z,101820.66
2018-05-06T21:43:44.108Z,101823.72
2018-05-06T21:46:09.885Z,101814.97
2018-05-06T21:48:35.682Z,101818.30
2018-05-06T21:51:01.478Z,101816.37
2018-05-06T21:53:27.384Z,101812.42
2018-05-06T21:55:53.341Z,101811.67
2018-05-06T21:58:19.238Z,101809.15
2018-05-06T22:00:45.027Z,101805.84
2018-05-06T22:03:10.938Z,101804.69
2018-05-06T22:05:36.734Z,101803.81
2018-05-06T22:08:02.565Z,101804.25
2018-05-06T22:10:28.350Z,101803.70
2018-05-06T22:12:54.157Z,101807.34
2018-05-06T22:15:19.932Z,101807.06
2018-05-06T22:17:45.751Z,101803.31
2018-05-06T22:20:11.549Z,101807.02
2018-05-06T22:22:37.945Z,101808.56
2018-05-06T22:25:03.715Z,101807.89
2018-05-06T22:27:29.529Z,101803.86
2018-05-06T22:29:55.321Z,101804.88
2018-05-06T22:32:21.142Z,101807.56
2018-05-06T22:34:46.946Z,101807.25
2018-05-06T22:37:12.725Z,101804.65
2018-05-06T22:39:38.540Z,101799.83
2018-05-06T22:42:04.342Z,101800.89
2018-05-06T22:44:30.130Z,101802.11
2018-05-06T22:46:55.935Z,101800.89
2018-05-06T22:49:21.709Z,101796.39
2018-05-06T22:51:47.556Z,101798.36
2018-05-06T22:54:13.345Z,101797.17
2018-05-06T22:56:39.128Z,101797.88
2018-05-06T22:59:04.918Z,101799.42
2018-05-06T23:01:31.126Z,101797.75
2018-05-06T23:03:56.938Z,101792.61
2018-05-06T23:06:22.722Z,101793.35
2018-05-06T23:08:48.542Z,101793.44
2018-05-06T23:11:14.408Z,101795.70
2018-05-06T23:13:40.158Z,101799.43
2018-05-06T23:16:06.238Z,101796.41
2018-05-06T23:18:32.030Z,101792.84
2018-05-06T23:20:57.876Z,101789.43
2018-05-06T23:23:23.630Z,101794.44
2018-05-06T23:25:49.413Z,101796.57
2018-05-06T23:28:15.198Z,101778.61
2018-05-06T23:30:41.006Z,101790.28
2018-05-06T23:33:06.790Z,101797.19
2018-05-06T23:35:32.612Z,101792.55
2018-05-06T23:37:58.393Z,101795.31
2018-05-06T23:40:24.190Z,101801.55
2018-05-06T23:42:49.990Z,101800.09
2018-05-06T23:45:15.900Z,101797.11
2018-05-06T23:47:41.696Z,101798.44
2018-05-06T23:50:07.489Z,101796.61
2018-05-06T23:52:33.297Z,101790.86
2018-05-06T23:54:59.064Z,101793.23
2018-05-06T23:57:24.853Z,101796.37
2018-05-06T23:59:50.637Z,101797.01
